PWSweather.com
Personal Weather Stations
Station Observations
KWIATHEL1
Marinette County, Athelstane, WI 54104

Marinette CountyAthelstane, WI 54104

Lat: 45.4, Lon: -88.12

Elevation: 960

Station Type: OS WM-918

http://weather.athelstanewi.com

Latest ConditionsUpdated 8:15:36 AM CDT Friday, Oct 31, 2014
Currently Today's Max Today's Min Today's Average
Temperature 31.3°F-0.4°C 37.2°F2.9°C 31.1°F-0.5°C 33.8°F1.0°C
Dew Point 20.9°F-6.2°C 29.5°F-1.4°C 20.9°F-6.2°C 26.2°F-3.2°C
Winds Calm Calm 18.1 mph NW29.1 kmh NW - 3.8 mph 6.1 kmh
Wind Gusts 4.7 mph7.6 kmh 20.8 mph33.5 kmh - -
Humidity 65% 79% 65% 73%
Pressure 30.25 in1024.4 mb 30.25 in1024.4 mb 29.98 in1015.2 mb -
Hour Temp Dew Point Humidity Winds Wind Gusts Pressure Precip Precip Rate Daily Precip Total
08:15 AM 31.3°F-0.4°C 20.9°F-6.2°C 65% Calm Calm 4.7 mph7.6 kmh 30.25 in1024.4 mb 0.00 in0.0 mm 0.00 in/hr0.0 mm/hr 0.00 in0.0 mm
08:00 AM 31.3°F-0.4°C 21.3°F-5.9°C 66% 4.0 mph NNE6.4 kmh NNE 8.1 mph13.0 kmh 30.25 in1024.4 mb 0.00 in0.0 mm 0.00 in/hr0.0 mm/hr 0.00 in0.0 mm
07:45 AM 31.1°F-0.5°C 21.1°F-6.1°C 66% Calm Calm -- 30.22 in1023.4 mb 0.00 in0.0 mm 0.00 in/hr0.0 mm/hr 0.00 in0.0 mm
07:30 AM 31.3°F-0.4°C 21.3°F-5.9°C 66% 4.7 mph NE7.6 kmh NE 9.4 mph15.1 kmh 30.22 in1023.4 mb 0.00 in0.0 mm 0.00 in/hr0.0 mm/hr 0.00 in0.0 mm
07:15 AM 31.3°F-0.4°C 21.6°F-5.8°C 67% 10.1 mph NE16.3 kmh NE 11.1 mph17.9 kmh 30.22 in1023.4 mb 0.00 in0.0 mm 0.00 in/hr0.0 mm/hr 0.00 in0.0 mm
07:00 AM 31.3°F-0.4°C 21.3°F-5.9°C 66% 6.0 mph NW9.7 kmh NW 6.0 mph9.7 kmh 30.19 in1022.4 mb 0.00 in0.0 mm 0.00 in/hr0.0 mm/hr 0.00 in0.0 mm
06:45 AM 31.5°F-0.3°C 21.4°F-5.9°C 66% 8.1 mph NNE13.0 kmh NNE 13.1 mph21.1 kmh 30.19 in1022.4 mb 0.00 in0.0 mm 0.00 in/hr0.0 mm/hr 0.00 in0.0 mm
06:30 AM 31.6°F-0.2°C 22.3°F-5.4°C 68% Calm Calm 4.7 mph7.6 kmh 30.19 in1022.4 mb 0.00 in0.0 mm 0.00 in/hr0.0 mm/hr 0.00 in0.0 mm
06:15 AM 32.0°F0.0°C 23.7°F-4.6°C 71% Calm Calm 4.0 mph6.4 kmh 30.19 in1022.4 mb 0.00 in0.0 mm 0.00 in/hr0.0 mm/hr 0.00 in0.0 mm
06:01 AM 32.2°F0.1°C 25.5°F-3.6°C 76% 6.7 mph N10.8 kmh N 9.4 mph15.1 kmh 30.19 in1022.4 mb 0.00 in0.0 mm 0.00 in/hr0.0 mm/hr 0.00 in0.0 mm
05:45 AM 32.0°F0.0°C 25.6°F-3.6°C 77% 4.7 mph NE7.6 kmh NE 6.7 mph10.8 kmh 30.16 in1021.3 mb 0.00 in0.0 mm 0.00 in/hr0.0 mm/hr 0.00 in0.0 mm
05:30 AM 32.2°F0.1°C 25.5°F-3.6°C 76% 4.7 mph SW7.6 kmh SW 7.4 mph11.9 kmh 30.16 in1021.3 mb 0.00 in0.0 mm 0.00 in/hr0.0 mm/hr 0.00 in0.0 mm
05:15 AM 32.5°F0.3°C 25.2°F-3.8°C 74% 8.1 mph NW13.0 kmh NW 8.1 mph13.0 kmh 30.16 in1021.3 mb 0.00 in0.0 mm 0.00 in/hr0.0 mm/hr 0.00 in0.0 mm
05:00 AM 33.3°F0.7°C 25.9°F-3.4°C 74% 4.7 mph NNW7.6 kmh NNW 8.7 mph14.0 kmh 30.13 in1020.3 mb 0.00 in0.0 mm 0.00 in/hr0.0 mm/hr 0.00 in0.0 mm
04:45 AM 33.6°F0.9°C 27.2°F-2.7°C 77% Calm Calm 5.4 mph8.7 kmh 30.13 in1020.3 mb 0.00 in0.0 mm 0.00 in/hr0.0 mm/hr 0.00 in0.0 mm
04:30 AM 33.4°F0.8°C 27.6°F-2.4°C 79% 6.0 mph NNW9.7 kmh NNW 13.8 mph22.2 kmh 30.10 in1019.3 mb 0.00 in0.0 mm 0.00 in/hr0.0 mm/hr 0.00 in0.0 mm
04:15 AM 33.1°F0.6°C 27.0°F-2.8°C 78% Calm Calm -- 30.10 in1019.3 mb 0.00 in0.0 mm 0.00 in/hr0.0 mm/hr 0.00 in0.0 mm
04:00 AM 33.4°F0.8°C 27.0°F-2.8°C 77% Calm Calm -- 30.10 in1019.3 mb 0.00 in0.0 mm 0.00 in/hr0.0 mm/hr 0.00 in0.0 mm
03:45 AM 34.0°F1.1°C 27.2°F-2.7°C 76% 4.7 mph NE7.6 kmh NE 5.4 mph8.7 kmh 30.10 in1019.3 mb 0.00 in0.0 mm 0.00 in/hr0.0 mm/hr 0.00 in0.0 mm
03:30 AM 34.3°F1.3°C 27.6°F-2.4°C 76% 4.0 mph ENE6.4 kmh ENE 8.7 mph14.0 kmh 30.07 in1018.3 mb 0.00 in0.0 mm 0.00 in/hr0.0 mm/hr 0.00 in0.0 mm
03:15 AM 34.5°F1.4°C 27.8°F-2.3°C 76% Calm Calm -- 30.07 in1018.3 mb 0.00 in0.0 mm 0.00 in/hr0.0 mm/hr 0.00 in0.0 mm
03:00 AM 34.9°F1.6°C 28.1°F-2.2°C 76% 8.7 mph NW14.0 kmh NW 8.7 mph14.0 kmh 30.07 in1018.3 mb 0.00 in0.0 mm 0.00 in/hr0.0 mm/hr 0.00 in0.0 mm
02:45 AM 34.9°F1.6°C 28.7°F-1.8°C 78% Calm Calm 6.7 mph10.8 kmh 30.04 in1017.3 mb 0.00 in0.0 mm 0.00 in/hr0.0 mm/hr 0.00 in0.0 mm
02:30 AM 35.1°F1.7°C 29.2°F-1.6°C 79% 18.1 mph NW29.1 kmh NW 20.8 mph33.5 kmh 30.04 in1017.3 mb 0.00 in0.0 mm 0.00 in/hr0.0 mm/hr 0.00 in0.0 mm
02:15 AM 35.1°F1.7°C 29.2°F-1.6°C 79% Calm Calm 4.7 mph7.6 kmh 30.04 in1017.3 mb 0.00 in0.0 mm 0.00 in/hr0.0 mm/hr 0.00 in0.0 mm
02:00 AM 35.4°F1.9°C 29.3°F-1.5°C 78% Calm Calm 4.7 mph7.6 kmh 30.04 in1017.3 mb 0.00 in0.0 mm 0.00 in/hr0.0 mm/hr 0.00 in0.0 mm
01:45 AM 36.0°F2.2°C 29.5°F-1.4°C 77% 8.7 mph W14.0 kmh W 8.7 mph14.0 kmh 30.01 in1016.3 mb 0.00 in0.0 mm 0.00 in/hr0.0 mm/hr 0.00 in0.0 mm
01:30 AM 36.3°F2.4°C 29.2°F-1.6°C 75% 11.7 mph WNW18.8 kmh WNW 11.7 mph18.8 kmh 30.01 in1016.3 mb 0.00 in0.0 mm 0.00 in/hr0.0 mm/hr 0.00 in0.0 mm
01:15 AM 36.7°F2.6°C 28.9°F-1.7°C 73% Calm Calm 8.7 mph14.0 kmh 30.01 in1016.3 mb 0.00 in0.0 mm 0.00 in/hr0.0 mm/hr 0.00 in0.0 mm
01:00 AM 36.9°F2.7°C 29.4°F-1.4°C 74% Calm Calm 10.4 mph16.7 kmh 30.01 in1016.3 mb 0.00 in0.0 mm 0.00 in/hr0.0 mm/hr 0.00 in0.0 mm
12:45 AM 36.9°F2.7°C 29.4°F-1.4°C 74% Calm Calm -- 29.98 in1015.2 mb 0.00 in0.0 mm 0.00 in/hr0.0 mm/hr 0.00 in0.0 mm
12:30 AM 36.7°F2.6°C 28.5°F-1.9°C 72% Calm Calm -- 29.98 in1015.2 mb 0.00 in0.0 mm 0.00 in/hr0.0 mm/hr 0.00 in0.0 mm
12:15 AM 36.9°F2.7°C 29.0°F-1.7°C 73% 4.7 mph NW7.6 kmh NW 7.4 mph11.9 kmh 29.98 in1015.2 mb 0.00 in0.0 mm 0.00 in/hr0.0 mm/hr 0.00 in0.0 mm
12:00 AM 37.2°F2.9°C 28.7°F-1.8°C 71% Calm Calm 9.4 mph15.1 kmh 29.98 in1015.2 mb 0.00 in0.0 mm 0.00 in/hr0.0 mm/hr 0.00 in0.0 mm